sensor_id;sensor_type;location;lat;lon;timestamp;temperature;humidity
29775;DHT22;16676;51.202;6.774;2023-06-26T00:02:28;27.60;51.40
29775;DHT22;16676;51.202;6.774;2023-06-26T00:06:34;27.60;51.30
29775;DHT22;16676;51.202;6.774;2023-06-26T00:10:36;27.60;51.30
29775;DHT22;16676;51.202;6.774;2023-06-26T00:14:38;27.50;50.90
29775;DHT22;16676;51.202;6.774;2023-06-26T00:18:40;27.50;50.90
29775;DHT22;16676;51.202;6.774;2023-06-26T00:22:44;27.40;50.70
29775;DHT22;16676;51.202;6.774;2023-06-26T00:26:47;27.40;50.70
29775;DHT22;16676;51.202;6.774;2023-06-26T00:30:49;27.30;50.70
29775;DHT22;16676;51.202;6.774;2023-06-26T00:34:51;27.30;50.80
29775;DHT22;16676;51.202;6.774;2023-06-26T00:38:55;27.30;50.90
29775;DHT22;16676;51.202;6.774;2023-06-26T00:42:57;27.20;51.20
29775;DHT22;16676;51.202;6.774;2023-06-26T00:46:59;27.10;51.50
29775;DHT22;16676;51.202;6.774;2023-06-26T00:51:01;27.10;51.80
29775;DHT22;16676;51.202;6.774;2023-06-26T00:55:05;27.10;51.80
29775;DHT22;16676;51.202;6.774;2023-06-26T00:59:07;27.10;51.90
29775;DHT22;16676;51.202;6.774;2023-06-26T01:03:09;27.10;52.10
29775;DHT22;16676;51.202;6.774;2023-06-26T01:07:11;27.10;52.30
29775;DHT22;16676;51.202;6.774;2023-06-26T01:11:15;27.10;52.20
29775;DHT22;16676;51.202;6.774;2023-06-26T01:15:17;27.00;52.40
29775;DHT22;16676;51.202;6.774;2023-06-26T01:19:24;27.00;52.60
29775;DHT22;16676;51.202;6.774;2023-06-26T01:23:30;27.00;52.70
29775;DHT22;16676;51.202;6.774;2023-06-26T01:27:34;26.90;52.80
29775;DHT22;16676;51.202;6.774;2023-06-26T01:31:37;26.90;53.10
29775;DHT22;16676;51.202;6.774;2023-06-26T01:35:39;26.80;53.10
29775;DHT22;16676;51.202;6.774;2023-06-26T01:39:41;26.80;53.50
29775;DHT22;16676;51.202;6.774;2023-06-26T01:43:57;26.70;53.50
29775;DHT22;16676;51.202;6.774;2023-06-26T01:48:06;26.60;53.70
29775;DHT22;16676;51.202;6.774;2023-06-26T01:52:14;26.60;53.80
29775;DHT22;16676;51.202;6.774;2023-06-26T01:56:18;26.50;53.80
29775;DHT22;16676;51.202;6.774;2023-06-26T02:00:23;26.50;54.00
29775;DHT22;16676;51.202;6.774;2023-06-26T02:04:26;26.50;54.30
29775;DHT22;16676;51.202;6.774;2023-06-26T02:08:28;26.50;54.30
29775;DHT22;16676;51.202;6.774;2023-06-26T02:12:30;26.50;54.30
29775;DHT22;16676;51.202;6.774;2023-06-26T02:16:33;26.40;54.50
29775;DHT22;16676;51.202;6.774;2023-06-26T02:20:35;26.40;55.20
29775;DHT22;16676;51.202;6.774;2023-06-26T02:24:37;26.40;53.70
29775;DHT22;16676;51.202;6.774;2023-06-26T02:28:39;26.30;54.00
29775;DHT22;16676;51.202;6.774;2023-06-26T02:32:42;26.30;53.90
29775;DHT22;16676;51.202;6.774;2023-06-26T02:36:44;26.30;53.80
29775;DHT22;16676;51.202;6.774;2023-06-26T02:40:46;26.30;53.40
29775;DHT22;16676;51.202;6.774;2023-06-26T02:44:48;26.20;53.30
29775;DHT22;16676;51.202;6.774;2023-06-26T02:48:51;26.20;53.70
29775;DHT22;16676;51.202;6.774;2023-06-26T02:52:53;26.20;53.50
29775;DHT22;16676;51.202;6.774;2023-06-26T02:56:55;26.10;53.50
29775;DHT22;16676;51.202;6.774;2023-06-26T03:00:57;26.10;53.60
29775;DHT22;16676;51.202;6.774;2023-06-26T03:05:00;26.10;53.70
29775;DHT22;16676;51.202;6.774;2023-06-26T03:09:03;26.00;53.50
29775;DHT22;16676;51.202;6.774;2023-06-26T03:13:05;25.90;53.00
29775;DHT22;16676;51.202;6.774;2023-06-26T03:17:07;26.00;53.20
29775;DHT22;16676;51.202;6.774;2023-06-26T03:21:10;26.00;53.10
29775;DHT22;16676;51.202;6.774;2023-06-26T03:25:12;26.00;53.20
29775;DHT22;16676;51.202;6.774;2023-06-26T03:29:14;25.90;53.70
29775;DHT22;16676;51.202;6.774;2023-06-26T03:33:16;25.90;53.80
29775;DHT22;16676;51.202;6.774;2023-06-26T03:37:19;26.00;54.20
29775;DHT22;16676;51.202;6.774;2023-06-26T03:41:21;26.00;54.40
29775;DHT22;16676;51.202;6.774;2023-06-26T03:45:23;26.00;54.70
29775;DHT22;16676;51.202;6.774;2023-06-26T03:49:25;26.10;56.00
29775;DHT22;16676;51.202;6.774;2023-06-26T03:53:28;26.10;54.90
29775;DHT22;16676;51.202;6.774;2023-06-26T03:57:30;26.10;54.90
29775;DHT22;16676;51.202;6.774;2023-06-26T04:01:32;26.10;55.20
29775;DHT22;16676;51.202;6.774;2023-06-26T04:05:34;26.00;55.10
29775;DHT22;16676;51.202;6.774;2023-06-26T04:09:37;26.10;55.60
29775;DHT22;16676;51.202;6.774;2023-06-26T04:13:39;26.10;55.40
29775;DHT22;16676;51.202;6.774;2023-06-26T04:17:41;26.10;55.00
29775;DHT22;16676;51.202;6.774;2023-06-26T04:21:43;26.10;55.80
29775;DHT22;16676;51.202;6.774;2023-06-26T04:25:47;26.00;55.30
29775;DHT22;16676;51.202;6.774;2023-06-26T04:29:49;26.00;55.60
29775;DHT22;16676;51.202;6.774;2023-06-26T04:33:51;26.00;55.40
29775;DHT22;16676;51.202;6.774;2023-06-26T04:37:55;26.00;55.80
29775;DHT22;16676;51.202;6.774;2023-06-26T04:41:58;26.10;56.00
29775;DHT22;16676;51.202;6.774;2023-06-26T04:46:01;26.10;55.10
29775;DHT22;16676;51.202;6.774;2023-06-26T04:50:04;26.10;54.80
29775;DHT22;16676;51.202;6.774;2023-06-26T04:54:06;26.00;54.30
29775;DHT22;16676;51.202;6.774;2023-06-26T04:58:10;26.00;54.20
29775;DHT22;16676;51.202;6.774;2023-06-26T05:02:12;25.90;54.00
29775;DHT22;16676;51.202;6.774;2023-06-26T05:06:15;26.00;54.50
29775;DHT22;16676;51.202;6.774;2023-06-26T05:10:17;26.00;54.60
29775;DHT22;16676;51.202;6.774;2023-06-26T05:14:20;26.10;54.40
29775;DHT22;16676;51.202;6.774;2023-06-26T05:18:22;26.00;54.60
29775;DHT22;16676;51.202;6.774;2023-06-26T05:22:25;26.00;55.40
29775;DHT22;16676;51.202;6.774;2023-06-26T05:26:28;26.00;54.50
29775;DHT22;16676;51.202;6.774;2023-06-26T05:30:32;25.90;54.70
29775;DHT22;16676;51.202;6.774;2023-06-26T05:34:35;25.90;55.20
29775;DHT22;16676;51.202;6.774;2023-06-26T05:38:38;25.80;56.10
29775;DHT22;16676;51.202;6.774;2023-06-26T05:42:40;25.70;56.50
29775;DHT22;16676;51.202;6.774;2023-06-26T05:46:45;25.70;56.70
29775;DHT22;16676;51.202;6.774;2023-06-26T05:50:47;25.80;57.00
29775;DHT22;16676;51.202;6.774;2023-06-26T05:54:50;25.70;57.20
29775;DHT22;16676;51.202;6.774;2023-06-26T05:58:52;25.70;57.10
29775;DHT22;16676;51.202;6.774;2023-06-26T06:02:56;25.70;57.20
29775;DHT22;16676;51.202;6.774;2023-06-26T06:06:57;25.70;57.20
29775;DHT22;16676;51.202;6.774;2023-06-26T06:11:00;25.60;57.40
29775;DHT22;16676;51.202;6.774;2023-06-26T06:15:02;25.70;57.20
29775;DHT22;16676;51.202;6.774;2023-06-26T06:19:05;25.70;56.90
29775;DHT22;16676;51.202;6.774;2023-06-26T06:23:08;25.70;56.90
29775;DHT22;16676;51.202;6.774;2023-06-26T06:27:10;25.70;56.50
29775;DHT22;16676;51.202;6.774;2023-06-26T06:31:12;25.70;56.90
29775;DHT22;16676;51.202;6.774;2023-06-26T06:35:16;25.80;57.10
29775;DHT22;16676;51.202;6.774;2023-06-26T06:39:17;25.70;56.70
29775;DHT22;16676;51.202;6.774;2023-06-26T06:43:19;25.70;56.70
29775;DHT22;16676;51.202;6.774;2023-06-26T06:47:21;25.70;56.70
29775;DHT22;16676;51.202;6.774;2023-06-26T06:51:24;25.70;57.00
29775;DHT22;16676;51.202;6.774;2023-06-26T06:55:26;25.70;56.70
29775;DHT22;16676;51.202;6.774;2023-06-26T06:59:28;25.70;56.50
29775;DHT22;16676;51.202;6.774;2023-06-26T07:03:30;25.80;56.80
29775;DHT22;16676;51.202;6.774;2023-06-26T07:07:34;25.90;56.90
29775;DHT22;16676;51.202;6.774;2023-06-26T07:11:37;25.80;56.20
29775;DHT22;16676;51.202;6.774;2023-06-26T07:15:38;25.90;56.10
29775;DHT22;16676;51.202;6.774;2023-06-26T07:19:40;25.90;56.90
29775;DHT22;16676;51.202;6.774;2023-06-26T07:23:44;25.90;56.10
29775;DHT22;16676;51.202;6.774;2023-06-26T07:27:45;26.00;56.00
29775;DHT22;16676;51.202;6.774;2023-06-26T07:31:47;25.90;56.00
29775;DHT22;16676;51.202;6.774;2023-06-26T07:35:49;26.00;56.40
29775;DHT22;16676;51.202;6.774;2023-06-26T07:39:52;26.00;55.70
29775;DHT22;16676;51.202;6.774;2023-06-26T07:43:54;26.10;56.10
29775;DHT22;16676;51.202;6.774;2023-06-26T07:47:56;26.10;56.00
29775;DHT22;16676;51.202;6.774;2023-06-26T07:51:58;26.00;56.20
29775;DHT22;16676;51.202;6.774;2023-06-26T07:56:01;25.90;56.30
29775;DHT22;16676;51.202;6.774;2023-06-26T08:00:04;26.00;56.40
29775;DHT22;16676;51.202;6.774;2023-06-26T08:04:07;26.20;57.90
29775;DHT22;16676;51.202;6.774;2023-06-26T08:08:11;26.30;58.00
29775;DHT22;16676;51.202;6.774;2023-06-26T08:12:14;26.40;57.40
29775;DHT22;16676;51.202;6.774;2023-06-26T08:16:16;26.40;56.50
29775;DHT22;16676;51.202;6.774;2023-06-26T08:20:18;26.40;56.60
29775;DHT22;16676;51.202;6.774;2023-06-26T08:24:21;26.50;56.20
29775;DHT22;16676;51.202;6.774;2023-06-26T08:28:24;26.50;56.80
29775;DHT22;16676;51.202;6.774;2023-06-26T08:32:26;26.60;55.70
29775;DHT22;16676;51.202;6.774;2023-06-26T08:36:28;26.70;56.00
29775;DHT22;16676;51.202;6.774;2023-06-26T08:40:30;26.70;56.00
29775;DHT22;16676;51.202;6.774;2023-06-26T08:44:34;26.70;55.10
29775;DHT22;16676;51.202;6.774;2023-06-26T08:48:37;26.70;55.50
29775;DHT22;16676;51.202;6.774;2023-06-26T08:52:43;26.70;56.00
29775;DHT22;16676;51.202;6.774;2023-06-26T08:56:49;26.70;55.10
29775;DHT22;16676;51.202;6.774;2023-06-26T09:00:53;26.70;54.90
29775;DHT22;16676;51.202;6.774;2023-06-26T09:04:57;26.80;55.80
29775;DHT22;16676;51.202;6.774;2023-06-26T09:08:59;26.80;55.10
29775;DHT22;16676;51.202;6.774;2023-06-26T09:13:02;26.80;54.50
29775;DHT22;16676;51.202;6.774;2023-06-26T09:17:05;26.90;54.90
29775;DHT22;16676;51.202;6.774;2023-06-26T09:21:08;26.90;54.20
29775;DHT22;16676;51.202;6.774;2023-06-26T09:25:10;27.00;53.50
29775;DHT22;16676;51.202;6.774;2023-06-26T09:29:13;27.00;52.80
29775;DHT22;16676;51.202;6.774;2023-06-26T09:33:18;27.00;52.90
29775;DHT22;16676;51.202;6.774;2023-06-26T09:37:20;27.00;53.90
29775;DHT22;16676;51.202;6.774;2023-06-26T09:41:22;27.00;52.80
29775;DHT22;16676;51.202;6.774;2023-06-26T09:45:24;27.00;52.10
29775;DHT22;16676;51.202;6.774;2023-06-26T09:49:28;26.90;53.20
29775;DHT22;16676;51.202;6.774;2023-06-26T09:53:29;27.00;52.30
29775;DHT22;16676;51.202;6.774;2023-06-26T09:57:34;27.00;53.30
29775;DHT22;16676;51.202;6.774;2023-06-26T10:01:42;27.00;53.10
29775;DHT22;16676;51.202;6.774;2023-06-26T10:05:48;27.00;51.90
29775;DHT22;16676;51.202;6.774;2023-06-26T10:09:51;27.10;52.00
29775;DHT22;16676;51.202;6.774;2023-06-26T10:13:57;27.10;51.20
29775;DHT22;16676;51.202;6.774;2023-06-26T10:17:59;27.10;51.20
29775;DHT22;16676;51.202;6.774;2023-06-26T10:22:03;27.10;51.00
29775;DHT22;16676;51.202;6.774;2023-06-26T10:26:06;27.10;50.90
29775;DHT22;16676;51.202;6.774;2023-06-26T10:30:13;27.10;49.60
29775;DHT22;16676;51.202;6.774;2023-06-26T10:34:17;27.20;49.50
29775;DHT22;16676;51.202;6.774;2023-06-26T10:38:20;27.20;50.00
29775;DHT22;16676;51.202;6.774;2023-06-26T10:42:34;27.20;49.20
29775;DHT22;16676;51.202;6.774;2023-06-26T10:46:50;27.20;49.10
29775;DHT22;16676;51.202;6.774;2023-06-26T10:50:54;27.20;50.30
29775;DHT22;16676;51.202;6.774;2023-06-26T10:54:57;27.20;48.40
29775;DHT22;16676;51.202;6.774;2023-06-26T10:59:11;27.20;49.20
29775;DHT22;16676;51.202;6.774;2023-06-26T11:03:23;27.20;48.30
29775;DHT22;16676;51.202;6.774;2023-06-26T11:07:26;27.10;48.00
29775;DHT22;16676;51.202;6.774;2023-06-26T11:11:58;27.20;48.00
29775;DHT22;16676;51.202;6.774;2023-06-26T11:16:05;27.20;46.70
29775;DHT22;16676;51.202;6.774;2023-06-26T11:20:09;27.20;48.40
29775;DHT22;16676;51.202;6.774;2023-06-26T11:24:12;27.10;47.30
29775;DHT22;16676;51.202;6.774;2023-06-26T11:28:16;27.00;45.20
29775;DHT22;16676;51.202;6.774;2023-06-26T11:32:18;27.00;44.80
29775;DHT22;16676;51.202;6.774;2023-06-26T11:36:23;27.00;43.70
29775;DHT22;16676;51.202;6.774;2023-06-26T11:40:26;27.00;44.80
29775;DHT22;16676;51.202;6.774;2023-06-26T11:44:32;27.10;44.50
29775;DHT22;16676;51.202;6.774;2023-06-26T11:48:41;27.10;44.80
29775;DHT22;16676;51.202;6.774;2023-06-26T11:52:43;27.10;44.50
29775;DHT22;16676;51.202;6.774;2023-06-26T11:56:52;27.10;44.90
29775;DHT22;16676;51.202;6.774;2023-06-26T12:00:55;27.20;44.90
29775;DHT22;16676;51.202;6.774;2023-06-26T12:04:57;27.10;44.00
29775;DHT22;16676;51.202;6.774;2023-06-26T12:09:01;27.10;45.70
29775;DHT22;16676;51.202;6.774;2023-06-26T12:13:04;27.10;43.70
29775;DHT22;16676;51.202;6.774;2023-06-26T12:17:09;27.10;44.30
29775;DHT22;16676;51.202;6.774;2023-06-26T12:21:33;27.00;42.70
29775;DHT22;16676;51.202;6.774;2023-06-26T12:25:45;27.10;44.70
29775;DHT22;16676;51.202;6.774;2023-06-26T12:29:51;27.10;44.10
29775;DHT22;16676;51.202;6.774;2023-06-26T12:33:55;27.10;43.50
29775;DHT22;16676;51.202;6.774;2023-06-26T12:37:57;26.90;40.10
29775;DHT22;16676;51.202;6.774;2023-06-26T12:42:00;27.00;41.40
29775;DHT22;16676;51.202;6.774;2023-06-26T12:46:03;26.90;41.70
29775;DHT22;16676;51.202;6.774;2023-06-26T12:50:07;27.00;42.10
29775;DHT22;16676;51.202;6.774;2023-06-26T12:54:09;27.00;39.80
29775;DHT22;16676;51.202;6.774;2023-06-26T12:58:11;27.00;41.10
29775;DHT22;16676;51.202;6.774;2023-06-26T13:02:13;27.00;39.70
29775;DHT22;16676;51.202;6.774;2023-06-26T13:06:16;27.00;40.90
29775;DHT22;16676;51.202;6.774;2023-06-26T13:10:18;27.10;39.90
29775;DHT22;16676;51.202;6.774;2023-06-26T13:14:20;26.90;39.00
29775;DHT22;16676;51.202;6.774;2023-06-26T13:18:22;27.00;39.20
29775;DHT22;16676;51.202;6.774;2023-06-26T13:22:25;27.00;41.00
29775;DHT22;16676;51.202;6.774;2023-06-26T13:26:27;27.00;39.50
29775;DHT22;16676;51.202;6.774;2023-06-26T13:30:30;27.00;39.60
29775;DHT22;16676;51.202;6.774;2023-06-26T13:34:32;27.00;38.70
29775;DHT22;16676;51.202;6.774;2023-06-26T13:38:35;27.00;38.80
29775;DHT22;16676;51.202;6.774;2023-06-26T13:42:37;27.00;39.70
29775;DHT22;16676;51.202;6.774;2023-06-26T13:46:39;27.00;41.90
29775;DHT22;16676;51.202;6.774;2023-06-26T13:50:41;27.00;39.00
29775;DHT22;16676;51.202;6.774;2023-06-26T13:54:44;26.90;38.70
29775;DHT22;16676;51.202;6.774;2023-06-26T13:58:46;26.90;38.30
29775;DHT22;16676;51.202;6.774;2023-06-26T14:02:48;26.90;37.40
29775;DHT22;16676;51.202;6.774;2023-06-26T14:06:50;26.80;37.60
29775;DHT22;16676;51.202;6.774;2023-06-26T14:10:54;26.80;39.00
29775;DHT22;16676;51.202;6.774;2023-06-26T14:14:55;26.90;39.80
29775;DHT22;16676;51.202;6.774;2023-06-26T14:18:57;26.90;37.90
29775;DHT22;16676;51.202;6.774;2023-06-26T14:22:59;26.90;37.60
29775;DHT22;16676;51.202;6.774;2023-06-26T14:27:03;26.80;38.20
29775;DHT22;16676;51.202;6.774;2023-06-26T14:31:05;26.80;38.30
29775;DHT22;16676;51.202;6.774;2023-06-26T14:35:07;26.80;38.20
29775;DHT22;16676;51.202;6.774;2023-06-26T14:39:09;26.80;38.70
29775;DHT22;16676;51.202;6.774;2023-06-26T14:43:13;26.80;38.70
29775;DHT22;16676;51.202;6.774;2023-06-26T14:47:14;26.90;40.60
29775;DHT22;16676;51.202;6.774;2023-06-26T14:51:16;26.90;38.50
29775;DHT22;16676;51.202;6.774;2023-06-26T14:55:18;26.80;38.80
29775;DHT22;16676;51.202;6.774;2023-06-26T14:59:22;26.80;37.90
29775;DHT22;16676;51.202;6.774;2023-06-26T15:03:24;26.70;38.20
29775;DHT22;16676;51.202;6.774;2023-06-26T15:07:25;26.70;37.80
29775;DHT22;16676;51.202;6.774;2023-06-26T15:11:28;26.70;38.20
29775;DHT22;16676;51.202;6.774;2023-06-26T15:15:31;26.70;37.20
29775;DHT22;16676;51.202;6.774;2023-06-26T15:19:34;26.80;37.80
29775;DHT22;16676;51.202;6.774;2023-06-26T15:23:36;26.80;37.80
29775;DHT22;16676;51.202;6.774;2023-06-26T15:27:39;26.90;39.70
29775;DHT22;16676;51.202;6.774;2023-06-26T15:31:42;26.90;38.70
29775;DHT22;16676;51.202;6.774;2023-06-26T15:35:44;26.80;37.50
29775;DHT22;16676;51.202;6.774;2023-06-26T15:39:46;26.80;37.10
29775;DHT22;16676;51.202;6.774;2023-06-26T15:43:48;26.80;37.90
29775;DHT22;16676;51.202;6.774;2023-06-26T15:47:53;26.90;39.60
29775;DHT22;16676;51.202;6.774;2023-06-26T15:51:55;26.80;37.20
29775;DHT22;16676;51.202;6.774;2023-06-26T15:55:56;26.80;37.10
29775;DHT22;16676;51.202;6.774;2023-06-26T15:59:58;26.80;36.60
29775;DHT22;16676;51.202;6.774;2023-06-26T16:04:02;26.80;38.40
29775;DHT22;16676;51.202;6.774;2023-06-26T16:08:05;26.80;37.30
29775;DHT22;16676;51.202;6.774;2023-06-26T16:12:07;26.80;38.00
29775;DHT22;16676;51.202;6.774;2023-06-26T16:16:09;26.80;37.50
29775;DHT22;16676;51.202;6.774;2023-06-26T16:20:13;26.70;38.20
29775;DHT22;16676;51.202;6.774;2023-06-26T16:24:15;26.70;37.40
29775;DHT22;16676;51.202;6.774;2023-06-26T16:28:17;26.70;37.20
29775;DHT22;16676;51.202;6.774;2023-06-26T16:32:19;26.70;37.30
29775;DHT22;16676;51.202;6.774;2023-06-26T16:36:22;26.70;37.40
29775;DHT22;16676;51.202;6.774;2023-06-26T16:40:29;26.60;36.70
29775;DHT22;16676;51.202;6.774;2023-06-26T16:44:31;26.60;37.50
29775;DHT22;16676;51.202;6.774;2023-06-26T16:48:32;26.60;37.30
29775;DHT22;16676;51.202;6.774;2023-06-26T16:52:36;26.60;37.70
29775;DHT22;16676;51.202;6.774;2023-06-26T16:56:37;26.60;37.40
29775;DHT22;16676;51.202;6.774;2023-06-26T17:00:40;26.50;37.40
29775;DHT22;16676;51.202;6.774;2023-06-26T17:04:42;26.50;37.30
29775;DHT22;16676;51.202;6.774;2023-06-26T17:08:45;26.40;37.50
29775;DHT22;16676;51.202;6.774;2023-06-26T17:12:47;26.40;37.40
29775;DHT22;16676;51.202;6.774;2023-06-26T17:16:49;26.40;37.30
29775;DHT22;16676;51.202;6.774;2023-06-26T17:20:51;26.40;37.50
29775;DHT22;16676;51.202;6.774;2023-06-26T17:24:54;26.30;37.60
29775;DHT22;16676;51.202;6.774;2023-06-26T17:28:59;26.40;38.00
29775;DHT22;16676;51.202;6.774;2023-06-26T17:33:01;26.30;38.50
29775;DHT22;16676;51.202;6.774;2023-06-26T17:37:04;26.30;38.30
29775;DHT22;16676;51.202;6.774;2023-06-26T17:41:08;26.30;37.90
29775;DHT22;16676;51.202;6.774;2023-06-26T17:45:10;26.30;37.90
29775;DHT22;16676;51.202;6.774;2023-06-26T17:49:13;26.20;37.80
29775;DHT22;16676;51.202;6.774;2023-06-26T17:53:15;26.20;37.70
29775;DHT22;16676;51.202;6.774;2023-06-26T17:57:19;26.20;37.90
29775;DHT22;16676;51.202;6.774;2023-06-26T18:01:21;26.10;38.00
29775;DHT22;16676;51.202;6.774;2023-06-26T18:05:23;26.10;38.10
29775;DHT22;16676;51.202;6.774;2023-06-26T18:09:27;26.10;38.00
29775;DHT22;16676;51.202;6.774;2023-06-26T18:13:30;26.10;38.20
29775;DHT22;16676;51.202;6.774;2023-06-26T18:17:33;26.10;38.30
29775;DHT22;16676;51.202;6.774;2023-06-26T18:21:36;26.10;38.60
29775;DHT22;16676;51.202;6.774;2023-06-26T18:25:38;26.00;38.10
29775;DHT22;16676;51.202;6.774;2023-06-26T18:29:42;26.10;39.00
29775;DHT22;16676;51.202;6.774;2023-06-26T18:33:45;26.20;39.90
29775;DHT22;16676;51.202;6.774;2023-06-26T18:37:47;26.20;42.90
29775;DHT22;16676;51.202;6.774;2023-06-26T18:41:49;26.30;41.00
29775;DHT22;16676;51.202;6.774;2023-06-26T18:45:52;26.20;40.10
29775;DHT22;16676;51.202;6.774;2023-06-26T18:49:54;26.30;40.20
29775;DHT22;16676;51.202;6.774;2023-06-26T18:53:56;26.30;41.70
29775;DHT22;16676;51.202;6.774;2023-06-26T18:58:02;26.30;39.90
29775;DHT22;16676;51.202;6.774;2023-06-26T19:02:06;26.20;38.90
29775;DHT22;16676;51.202;6.774;2023-06-26T19:06:08;26.20;38.80
29775;DHT22;16676;51.202;6.774;2023-06-26T19:10:10;26.20;39.60
29775;DHT22;16676;51.202;6.774;2023-06-26T19:14:15;26.20;40.40
29775;DHT22;16676;51.202;6.774;2023-06-26T19:18:19;26.30;41.60
29775;DHT22;16676;51.202;6.774;2023-06-26T19:22:21;26.30;40.20
29775;DHT22;16676;51.202;6.774;2023-06-26T19:26:23;26.30;42.10
29775;DHT22;16676;51.202;6.774;2023-06-26T19:30:25;26.30;41.00
29775;DHT22;16676;51.202;6.774;2023-06-26T19:34:28;26.20;40.50
29775;DHT22;16676;51.202;6.774;2023-06-26T19:38:30;26.20;41.50
29775;DHT22;16676;51.202;6.774;2023-06-26T19:42:32;26.20;41.30
29775;DHT22;16676;51.202;6.774;2023-06-26T19:46:33;26.20;43.40
29775;DHT22;16676;51.202;6.774;2023-06-26T19:50:37;26.30;41.60
29775;DHT22;16676;51.202;6.774;2023-06-26T19:54:39;26.20;42.90
29775;DHT22;16676;51.202;6.774;2023-06-26T19:58:41;26.20;40.10
29775;DHT22;16676;51.202;6.774;2023-06-26T20:02:43;26.10;40.00
29775;DHT22;16676;51.202;6.774;2023-06-26T20:06:46;26.10;41.50
29775;DHT22;16676;51.202;6.774;2023-06-26T20:10:49;26.10;41.30
29775;DHT22;16676;51.202;6.774;2023-06-26T20:14:51;26.10;41.60
29775;DHT22;16676;51.202;6.774;2023-06-26T20:18:53;26.10;40.30
29775;DHT22;16676;51.202;6.774;2023-06-26T20:22:56;26.00;40.80
29775;DHT22;16676;51.202;6.774;2023-06-26T20:27:00;26.00;40.30
29775;DHT22;16676;51.202;6.774;2023-06-26T20:31:01;26.00;40.50
29775;DHT22;16676;51.202;6.774;2023-06-26T20:35:04;26.00;40.70
29775;DHT22;16676;51.202;6.774;2023-06-26T20:39:07;25.80;40.10
29775;DHT22;16676;51.202;6.774;2023-06-26T20:43:10;25.90;41.00
29775;DHT22;16676;51.202;6.774;2023-06-26T20:47:13;25.80;40.40
29775;DHT22;16676;51.202;6.774;2023-06-26T20:51:17;25.80;41.10
29775;DHT22;16676;51.202;6.774;2023-06-26T20:55:21;25.80;40.50
29775;DHT22;16676;51.202;6.774;2023-06-26T20:59:23;25.80;41.30
29775;DHT22;16676;51.202;6.774;2023-06-26T21:03:25;25.80;40.70
29775;DHT22;16676;51.202;6.774;2023-06-26T21:07:27;25.80;41.20
29775;DHT22;16676;51.202;6.774;2023-06-26T21:11:30;25.80;41.70
29775;DHT22;16676;51.202;6.774;2023-06-26T21:15:32;25.80;41.70
29775;DHT22;16676;51.202;6.774;2023-06-26T21:19:34;25.80;41.10
29775;DHT22;16676;51.202;6.774;2023-06-26T21:23:36;25.80;41.00
29775;DHT22;16676;51.202;6.774;2023-06-26T21:27:39;25.70;41.00
29775;DHT22;16676;51.202;6.774;2023-06-26T21:31:41;25.70;41.70
29775;DHT22;16676;51.202;6.774;2023-06-26T21:35:43;25.70;41.40
29775;DHT22;16676;51.202;6.774;2023-06-26T21:39:47;25.70;41.20
29775;DHT22;16676;51.202;6.774;2023-06-26T21:43:50;25.70;42.40
29775;DHT22;16676;51.202;6.774;2023-06-26T21:47:52;25.70;41.30
29775;DHT22;16676;51.202;6.774;2023-06-26T21:51:54;25.70;42.20
29775;DHT22;16676;51.202;6.774;2023-06-26T21:55:56;25.60;41.80
29775;DHT22;16676;51.202;6.774;2023-06-26T21:59:59;25.60;41.50
29775;DHT22;16676;51.202;6.774;2023-06-26T22:04:01;25.60;41.70
29775;DHT22;16676;51.202;6.774;2023-06-26T22:08:03;25.60;41.60
29775;DHT22;16676;51.202;6.774;2023-06-26T22:12:07;25.60;42.10
29775;DHT22;16676;51.202;6.774;2023-06-26T22:16:10;25.50;43.00
29775;DHT22;16676;51.202;6.774;2023-06-26T22:20:12;25.50;42.40
29775;DHT22;16676;51.202;6.774;2023-06-26T22:24:16;25.50;43.90
29775;DHT22;16676;51.202;6.774;2023-06-26T22:28:19;25.50;42.00
29775;DHT22;16676;51.202;6.774;2023-06-26T22:32:22;25.50;42.20
29775;DHT22;16676;51.202;6.774;2023-06-26T22:36:24;25.50;42.00
29775;DHT22;16676;51.202;6.774;2023-06-26T22:40:27;25.50;43.80
29775;DHT22;16676;51.202;6.774;2023-06-26T22:44:29;25.50;45.50
29775;DHT22;16676;51.202;6.774;2023-06-26T22:48:32;25.50;44.90
29775;DHT22;16676;51.202;6.774;2023-06-26T22:52:37;25.50;47.40
29775;DHT22;16676;51.202;6.774;2023-06-26T22:56:39;25.60;46.00
29775;DHT22;16676;51.202;6.774;2023-06-26T23:00:42;25.60;46.70
29775;DHT22;16676;51.202;6.774;2023-06-26T23:04:45;25.60;48.40
29775;DHT22;16676;51.202;6.774;2023-06-26T23:08:47;25.60;47.20
29775;DHT22;16676;51.202;6.774;2023-06-26T23:12:49;25.60;47.50
29775;DHT22;16676;51.202;6.774;2023-06-26T23:16:54;25.60;47.80
29775;DHT22;16676;51.202;6.774;2023-06-26T23:21:05;25.60;48.40
29775;DHT22;16676;51.202;6.774;2023-06-26T23:25:08;25.60;43.50
29775;DHT22;16676;51.202;6.774;2023-06-26T23:29:10;25.50;44.90
29775;DHT22;16676;51.202;6.774;2023-06-26T23:33:12;25.50;46.10
29775;DHT22;16676;51.202;6.774;2023-06-26T23:37:16;25.60;50.10
29775;DHT22;16676;51.202;6.774;2023-06-26T23:41:25;25.60;48.60
29775;DHT22;16676;51.202;6.774;2023-06-26T23:45:27;25.60;49.80
29775;DHT22;16676;51.202;6.774;2023-06-26T23:49:31;25.60;48.70
29775;DHT22;16676;51.202;6.774;2023-06-26T23:53:35;25.70;48.60
29775;DHT22;16676;51.202;6.774;2023-06-26T23:57:37;25.60;44.70
